<?xml version='1.0' encoding='UTF-8'?><gpx version="1.1" creator="JPX - https://github.com/jenetics/jpx" xmlns="http://www.topografix.com/GPX/1/1"><trk><trkseg><trkpt lat="37.85237356228392" lon="13.791174776536074"><ele>697.0</ele><time>2026-03-23T13:43:45.999Z</time></trkpt><trkpt lat="37.85231172845198" lon="13.791224455482393"><ele>697.0</ele><time>2026-03-23T13:43:48.999Z</time></trkpt><trkpt lat="37.852258835192764" lon="13.79117635158891"><ele>697.0</ele><time>2026-03-23T13:44:00.999Z</time></trkpt><trkpt lat="37.852215949987965" lon="13.791115237150027"><ele>697.0</ele><time>2026-03-23T13:45:02.999Z</time></trkpt><trkpt lat="37.85218903004824" lon="13.791041237647535"><ele>697.0</ele><time>2026-03-23T13:45:11.999Z</time></trkpt><trkpt lat="37.852150847508796" lon="13.790976620119155"><ele>697.0</ele><time>2026-03-23T13:45:18.999Z</time></trkpt><trkpt lat="37.85210509510656" lon="13.790902725436752"><ele>697.0</ele><time>2026-03-23T13:45:25.999Z</time></trkpt><trkpt lat="37.85208098614438" lon="13.790827749171807"><ele>695.4285714285714</ele><time>2026-03-23T13:45:31.999Z</time></trkpt><trkpt lat="37.85204182479205" lon="13.790747207731798"><ele>693.8571428571429</ele><time>2026-03-23T13:45:38.999Z</time></trkpt><trkpt lat="37.85201229758242" lon="13.790675412539281"><ele>692.2857142857142</ele><time>2026-03-23T13:45:44.999Z</time></trkpt><trkpt lat="37.85198320921248" lon="13.790596839002585"><ele>690.7142857142858</ele><time>2026-03-23T13:45:50.999Z</time></trkpt><trkpt lat="37.85195354966023" lon="13.790526076868291"><ele>689.1428571428571</ele><time>2026-03-23T13:45:56.999Z</time></trkpt><trkpt lat="37.85192275788123" lon="13.790455830555603"><ele>687.5714285714286</ele><time>2026-03-23T13:46:02.999Z</time></trkpt><trkpt lat="37.85187163727446" lon="13.79038431495671"><ele>686.0</ele><time>2026-03-23T13:46:08.999Z</time></trkpt><trkpt lat="37.851838376196305" lon="13.790312834155156"><ele>687.2857142857143</ele><time>2026-03-23T13:46:14.999Z</time></trkpt><trkpt lat="37.851788741411035" lon="13.790258297269853"><ele>688.5714285714286</ele><time>2026-03-23T13:46:19.999Z</time></trkpt><trkpt lat="37.851753990445445" lon="13.790190035285828"><ele>689.8571428571429</ele><time>2026-03-23T13:46:26.999Z</time></trkpt><trkpt lat="37.85170279089695" lon="13.790130570482523"><ele>691.1428571428571</ele><time>2026-03-23T13:46:33.999Z</time></trkpt><trkpt lat="37.8516456425862" lon="13.790076292473318"><ele>692.4285714285714</ele><time>2026-03-23T13:46:39.999Z</time></trkpt><trkpt lat="37.85158292621553" lon="13.790027602905838"><ele>693.7142857142858</ele><time>2026-03-23T13:46:46.999Z</time></trkpt><trkpt lat="37.85152267973355" lon="13.789974989201683"><ele>695.0</ele><time>2026-03-23T13:46:57.999Z</time></trkpt><trkpt lat="37.851465748368845" lon="13.789936508678139"><ele>695.0000000000001</ele><time>2026-03-23T13:47:05.999Z</time></trkpt><trkpt lat="37.85140131026904" lon="13.789891779606911"><ele>695.0</ele><time>2026-03-23T13:47:16.999Z</time></trkpt><trkpt lat="37.85135825234689" lon="13.78982970184312"><ele>695.0</ele><time>2026-03-23T13:47:23.999Z</time></trkpt><trkpt lat="37.8512989515682" lon="13.789783910318286"><ele>695.0</ele><time>2026-03-23T13:47:54Z</time></trkpt><trkpt lat="37.85129081178258" lon="13.789688509325964"><ele>695.0</ele><time>2026-03-23T13:48:00Z</time></trkpt><trkpt lat="37.85125536122093" lon="13.789619851075797"><ele>695.0000000000001</ele><time>2026-03-23T13:48:07Z</time></trkpt><trkpt lat="37.85126297686703" lon="13.789531993314256"><ele>695.0</ele><time>2026-03-23T13:48:21Z</time></trkpt><trkpt lat="37.85119567014427" lon="13.789524944104594"><ele>695.0</ele><time>2026-03-23T13:48:33Z</time></trkpt><trkpt lat="37.851045002097784" lon="13.789503153235303"><ele>695.0</ele><time>2026-03-23T13:49:41Z</time></trkpt><trkpt lat="37.85096204387119" lon="13.789539531273348"><ele>695.0</ele><time>2026-03-23T13:50:14Z</time></trkpt><trkpt lat="37.85088959740306" lon="13.78956407859334"><ele>695.0</ele><time>2026-03-23T13:50:37Z</time></trkpt><trkpt lat="37.85084854338654" lon="13.789492454515777"><ele>695.0</ele><time>2026-03-23T13:50:52Z</time></trkpt><trkpt lat="37.850868250758694" lon="13.789389482426525"><ele>695.0000000000001</ele><time>2026-03-23T13:52:20Z</time></trkpt><trkpt lat="37.85093265968182" lon="13.789393150288616"><ele>695.0</ele><time>2026-03-23T13:52:34Z</time></trkpt><trkpt lat="37.85092409897695" lon="13.789309870471604"><ele>695.0</ele><time>2026-03-23T13:52:43Z</time></trkpt><trkpt lat="37.85094317474238" lon="13.789229556122486"><ele>695.0</ele><time>2026-03-23T13:52:55Z</time></trkpt><trkpt lat="37.85100043346484" lon="13.789183936293385"><ele>695.0</ele><time>2026-03-23T13:53:06Z</time></trkpt><trkpt lat="37.851056796356076" lon="13.789132008359921"><ele>695.0000000000001</ele><time>2026-03-23T13:55:49.999Z</time></trkpt><trkpt lat="37.85112171417078" lon="13.789156746822957"><ele>695.0</ele><time>2026-03-23T13:55:56.999Z</time></trkpt><trkpt lat="37.85126056395979" lon="13.789109636393002"><ele>695.0000000000001</ele><time>2026-03-23T13:56:11.999Z</time></trkpt><trkpt lat="37.85131507974051" lon="13.78916403380015"><ele>695.0</ele><time>2026-03-23T13:56:18.999Z</time></trkpt><trkpt lat="37.851313902160236" lon="13.789254971519949"><ele>695.0</ele><time>2026-03-23T13:56:28.999Z</time></trkpt><trkpt lat="37.851309417868165" lon="13.789174042060107"><ele>695.0</ele><time>2026-03-23T13:56:41.999Z</time></trkpt><trkpt lat="37.85132117157471" lon="13.789095218728441"><ele>695.0</ele><time>2026-03-23T13:56:47.999Z</time></trkpt><trkpt lat="37.85132210354468" lon="13.788998473443534"><ele>695.0000000000001</ele><time>2026-03-23T13:56:53.999Z</time></trkpt><trkpt lat="37.85133889285629" lon="13.788921305329131"><ele>695.0</ele><time>2026-03-23T13:56:59.999Z</time></trkpt><trkpt lat="37.851341283776165" lon="13.788839581999946"><ele>695.0000000000001</ele><time>2026-03-23T13:57:04.999Z</time></trkpt><trkpt lat="37.851310942994566" lon="13.78875480944426"><ele>695.0</ele><time>2026-03-23T13:57:12.999Z</time></trkpt><trkpt lat="37.85126412818485" lon="13.78869297237173"><ele>695.0</ele><time>2026-03-23T13:57:19.999Z</time></trkpt><trkpt lat="37.85121553620534" lon="13.788638648916193"><ele>695.0</ele><time>2026-03-23T13:57:26.999Z</time></trkpt><trkpt lat="37.85115632090167" lon="13.788595691909142"><ele>695.0</ele><time>2026-03-23T13:57:33.999Z</time></trkpt><trkpt lat="37.85111494518548" lon="13.788535456268669"><ele>695.0000000000001</ele><time>2026-03-23T13:57:39.999Z</time></trkpt><trkpt lat="37.851102214746156" lon="13.788451506282879"><ele>695.0</ele><time>2026-03-23T13:57:44.999Z</time></trkpt><trkpt lat="37.85111593582126" lon="13.788366518699922"><ele>695.0000000000001</ele><time>2026-03-23T13:57:50.999Z</time></trkpt><trkpt lat="37.85114359749029" lon="13.788282643793064"><ele>695.0</ele><time>2026-03-23T13:57:57.999Z</time></trkpt><trkpt lat="37.85116432753681" lon="13.788200085793965"><ele>695.0</ele><time>2026-03-23T13:58:03.999Z</time></trkpt><trkpt lat="37.85118045253644" lon="13.788121016563563"><ele>695.0</ele><time>2026-03-23T13:58:10.999Z</time></trkpt><trkpt lat="37.85120784421032" lon="13.78803858377129"><ele>695.0</ele><time>2026-03-23T13:58:19Z</time></trkpt><trkpt lat="37.851198789580955" lon="13.787950723523236"><ele>695.0000000000001</ele><time>2026-03-23T13:58:26Z</time></trkpt><trkpt lat="37.85115138965338" lon="13.78789326004245"><ele>695.0</ele><time>2026-03-23T13:58:36Z</time></trkpt><trkpt lat="37.85109403931392" lon="13.787848724309908"><ele>695.0000000000001</ele><time>2026-03-23T13:58:43Z</time></trkpt><trkpt lat="37.85102842729963" lon="13.787828522430463"><ele>695.0</ele><time>2026-03-23T13:59:06Z</time></trkpt><trkpt lat="37.85096149480484" lon="13.787830061193528"><ele>695.0</ele><time>2026-03-23T13:59:12Z</time></trkpt><trkpt lat="37.850895699113295" lon="13.78780709805599"><ele>695.0</ele><time>2026-03-23T13:59:19Z</time></trkpt><trkpt lat="37.850825712241914" lon="13.787808117396882"><ele>695.0</ele><time>2026-03-23T13:59:24Z</time></trkpt><trkpt lat="37.850769283015815" lon="13.78777272235008"><ele>695.0000000000001</ele><time>2026-03-23T13:59:31Z</time></trkpt><trkpt lat="37.850721727450484" lon="13.787719078247077"><ele>695.0</ele><time>2026-03-23T13:59:42Z</time></trkpt><trkpt lat="37.85066043866531" lon="13.78767699800431"><ele>697.0000000000001</ele><time>2026-03-23T13:59:49Z</time></trkpt><trkpt lat="37.85061434341552" lon="13.787610478575541"><ele>699.0</ele><time>2026-03-23T13:59:56Z</time></trkpt><trkpt lat="37.850563845673" lon="13.78755741012681"><ele>701.0</ele><time>2026-03-23T14:00:04Z</time></trkpt><trkpt lat="37.8505112770959" lon="13.787507135997142"><ele>703.0</ele><time>2026-03-23T14:00:21Z</time></trkpt><trkpt lat="37.850442322831384" lon="13.78749401607825"><ele>705.0</ele><time>2026-03-23T14:00:29Z</time></trkpt><trkpt lat="37.850381277385544" lon="13.787452783083737"><ele>707.0000000000001</ele><time>2026-03-23T14:00:44Z</time></trkpt><trkpt lat="37.85032116429503" lon="13.787415910801727"><ele>709.0</ele><time>2026-03-23T14:00:54Z</time></trkpt><trkpt lat="37.850258617091605" lon="13.787396271339489"><ele>709.0000000000001</ele><time>2026-03-23T14:01:12Z</time></trkpt><trkpt lat="37.85018637383186" lon="13.787391880437898"><ele>709.0</ele><time>2026-03-23T14:01:17Z</time></trkpt><trkpt lat="37.85013179794045" lon="13.787352091676729"><ele>709.0</ele><time>2026-03-23T14:01:24Z</time></trkpt><trkpt lat="37.85007020437706" lon="13.787335607232823"><ele>709.0</ele><time>2026-03-23T14:01:35Z</time></trkpt><trkpt lat="37.85000644058562" lon="13.78732309161181"><ele>709.0</ele><time>2026-03-23T14:01:42Z</time></trkpt><trkpt lat="37.849942471851726" lon="13.787287446188873"><ele>709.0000000000001</ele><time>2026-03-23T14:02:00Z</time></trkpt><trkpt lat="37.84988212464667" lon="13.787318265409377"><ele>709.0</ele><time>2026-03-23T14:02:08Z</time></trkpt><trkpt lat="37.849817135167285" lon="13.787301555877384"><ele>713.2857142857143</ele><time>2026-03-23T14:02:14Z</time></trkpt><trkpt lat="37.84974509721336" lon="13.787297157713944"><ele>717.5714285714286</ele><time>2026-03-23T14:02:26.001Z</time></trkpt><trkpt lat="37.849675742017965" lon="13.7872953915652"><ele>721.8571428571429</ele><time>2026-03-23T14:02:31.001Z</time></trkpt><trkpt lat="37.84961120218047" lon="13.787287053699265"><ele>726.1428571428571</ele><time>2026-03-23T14:03:04Z</time></trkpt><trkpt lat="37.8495625077105" lon="13.787339902402245"><ele>730.4285714285714</ele><time>2026-03-23T14:03:19Z</time></trkpt><trkpt lat="37.84949174235038" lon="13.787344364944834"><ele>734.7142857142858</ele><time>2026-03-23T14:03:27Z</time></trkpt><trkpt lat="37.84950529242803" lon="13.787426661167405"><ele>739.0</ele><time>2026-03-23T14:05:50Z</time></trkpt><trkpt lat="37.84957175231666" lon="13.787520223604384"><ele>739.0</ele><time>2026-03-23T14:06:05Z</time></trkpt><trkpt lat="37.849609768765006" lon="13.787595727855074"><ele>739.0</ele><time>2026-03-23T14:06:24Z</time></trkpt><trkpt lat="37.84966492838566" lon="13.78763524462557"><ele>739.0</ele><time>2026-03-23T14:06:32Z</time></trkpt><trkpt lat="37.849740589167624" lon="13.787680005385857"><ele>739.0</ele><time>2026-03-23T14:06:52Z</time></trkpt><trkpt lat="37.849801375411666" lon="13.787704733853692"><ele>739.0</ele><time>2026-03-23T14:07:01Z</time></trkpt><trkpt lat="37.849857230490535" lon="13.78774396064662"><ele>739.0</ele><time>2026-03-23T14:07:56Z</time></trkpt><trkpt lat="37.84992140074858" lon="13.787783537868728"><ele>739.0</ele><time>2026-03-23T14:08:03Z</time></trkpt><trkpt lat="37.84999132607555" lon="13.787802530351167"><ele>739.0</ele><time>2026-03-23T14:08:08Z</time></trkpt><trkpt lat="37.85005264153823" lon="13.787829567489437"><ele>739.0</ele><time>2026-03-23T14:08:13Z</time></trkpt><trkpt lat="37.850111912742456" lon="13.787755328311366"><ele>739.0</ele><time>2026-03-23T14:08:28Z</time></trkpt><trkpt lat="37.85011293358269" lon="13.787673639546108"><ele>739.0</ele><time>2026-03-23T14:08:38.001Z</time></trkpt><trkpt lat="37.85012838074654" lon="13.787585143443792"><ele>739.0</ele><time>2026-03-23T14:08:49.001Z</time></trkpt><trkpt lat="37.85019319826368" lon="13.787544004411739"><ele>739.0</ele><time>2026-03-23T14:09:04Z</time></trkpt><trkpt lat="37.850254478742876" lon="13.787569104054988"><ele>739.0</ele><time>2026-03-23T14:09:16Z</time></trkpt><trkpt lat="37.85031410464018" lon="13.787604892683166"><ele>735.7142857142858</ele><time>2026-03-23T14:09:26Z</time></trkpt><trkpt lat="37.85036385722453" lon="13.78765515039254"><ele>732.4285714285714</ele><time>2026-03-23T14:09:35Z</time></trkpt><trkpt lat="37.85041793070963" lon="13.787721700385376"><ele>729.1428571428571</ele><time>2026-03-23T14:09:46Z</time></trkpt><trkpt lat="37.850486296052225" lon="13.787684830175085"><ele>725.8571428571429</ele><time>2026-03-23T14:10:36Z</time></trkpt><trkpt lat="37.8505536829245" lon="13.787682737112757"><ele>722.5714285714286</ele><time>2026-03-23T14:12:49.001Z</time></trkpt><trkpt lat="37.850607614443604" lon="13.78763450651354"><ele>719.2857142857143</ele><time>2026-03-23T14:13:13Z</time></trkpt><trkpt lat="37.850658920841205" lon="13.787687962397852"><ele>716.0</ele><time>2026-03-23T14:13:17Z</time></trkpt><trkpt lat="37.85070333924588" lon="13.7877678074877"><ele>716.0000000000001</ele><time>2026-03-23T14:13:24Z</time></trkpt><trkpt lat="37.85076878145061" lon="13.787813310080281"><ele>716.0</ele><time>2026-03-23T14:13:30Z</time></trkpt><trkpt lat="37.850832048547495" lon="13.787823853459301"><ele>716.0</ele><time>2026-03-23T14:13:35Z</time></trkpt><trkpt lat="37.850898716202856" lon="13.78782471978977"><ele>716.0</ele><time>2026-03-23T14:13:40Z</time></trkpt><trkpt lat="37.850909634055675" lon="13.787910911985497"><ele>716.0</ele><time>2026-03-23T14:14:02Z</time></trkpt><trkpt lat="37.850921065361696" lon="13.787999161324132"><ele>716.0000000000001</ele><time>2026-03-23T14:14:21.999Z</time></trkpt><trkpt lat="37.85099236068789" lon="13.787995204139833"><ele>716.0</ele><time>2026-03-23T14:15:14Z</time></trkpt><trkpt lat="37.85105305409696" lon="13.788020276557491"><ele>713.0000000000001</ele><time>2026-03-23T14:15:21Z</time></trkpt><trkpt lat="37.85112598268043" lon="13.788002848711765"><ele>710.0</ele><time>2026-03-23T14:15:36Z</time></trkpt><trkpt lat="37.851167161802856" lon="13.7880676700389"><ele>707.0</ele><time>2026-03-23T14:15:50Z</time></trkpt><trkpt lat="37.851138236509044" lon="13.7881541726716"><ele>704.0</ele><time>2026-03-23T14:16:19.999Z</time></trkpt><trkpt lat="37.851181083279045" lon="13.78822159968815"><ele>701.0</ele><time>2026-03-23T14:18:20.999Z</time></trkpt><trkpt lat="37.851134889536354" lon="13.788301950354006"><ele>698.0000000000001</ele><time>2026-03-23T14:18:27.999Z</time></trkpt><trkpt lat="37.85109220481602" lon="13.788363965764514"><ele>695.0</ele><time>2026-03-23T14:18:32.999Z</time></trkpt><trkpt lat="37.85109074847191" lon="13.788457723147362"><ele>695.0000000000001</ele><time>2026-03-23T14:18:37.999Z</time></trkpt><trkpt lat="37.85112648891463" lon="13.788530452445226"><ele>695.0</ele><time>2026-03-23T14:18:43.999Z</time></trkpt><trkpt lat="37.85110273189442" lon="13.788611065369677"><ele>695.0</ele><time>2026-03-23T14:18:50.999Z</time></trkpt><trkpt lat="37.85109056843822" lon="13.788706216666412"><ele>695.0</ele><time>2026-03-23T14:19:00.999Z</time></trkpt><trkpt lat="37.851108239171246" lon="13.788784808919663"><ele>695.0</ele><time>2026-03-23T14:19:31.999Z</time></trkpt><trkpt lat="37.85119085705382" lon="13.788785834765628"><ele>695.0000000000001</ele><time>2026-03-23T14:20:15.999Z</time></trkpt><trkpt lat="37.85125605871114" lon="13.788760133205312"><ele>695.0</ele><time>2026-03-23T14:20:45.999Z</time></trkpt><trkpt lat="37.851321484327066" lon="13.788801461880592"><ele>695.0000000000001</ele><time>2026-03-23T14:21:00.999Z</time></trkpt><trkpt lat="37.851387985926976" lon="13.788785986968906"><ele>695.0</ele><time>2026-03-23T14:21:08.999Z</time></trkpt><trkpt lat="37.851361845785675" lon="13.788867502968072"><ele>695.0</ele><time>2026-03-23T14:21:55.999Z</time></trkpt><trkpt lat="37.85135473896916" lon="13.788948005561018"><ele>695.0</ele><time>2026-03-23T14:22:01.999Z</time></trkpt><trkpt lat="37.85134036863252" lon="13.789030634938326"><ele>695.0</ele><time>2026-03-23T14:22:06.999Z</time></trkpt><trkpt lat="37.85132572475854" lon="13.789117010731855"><ele>695.0000000000001</ele><time>2026-03-23T14:22:12.999Z</time></trkpt><trkpt lat="37.851311164669454" lon="13.789196601673858"><ele>695.0</ele><time>2026-03-23T14:22:17.999Z</time></trkpt><trkpt lat="37.8512642451856" lon="13.789258052085353"><ele>695.0000000000001</ele><time>2026-03-23T14:22:26.999Z</time></trkpt><trkpt lat="37.851191869203355" lon="13.789311792714177"><ele>695.0</ele><time>2026-03-23T14:22:45.999Z</time></trkpt><trkpt lat="37.85115312911368" lon="13.789377665493708"><ele>695.0</ele><time>2026-03-23T14:22:51.999Z</time></trkpt><trkpt lat="37.851111912139146" lon="13.789448611178852"><ele>695.0</ele><time>2026-03-23T14:23:00.999Z</time></trkpt><trkpt lat="37.85116257769532" lon="13.789505849955566"><ele>695.0</ele><time>2026-03-23T14:23:08.999Z</time></trkpt><trkpt lat="37.85110352031015" lon="13.789558645364128"><ele>695.0000000000001</ele><time>2026-03-23T14:23:17Z</time></trkpt><trkpt lat="37.85109683858844" lon="13.789640204966087"><ele>695.0</ele><time>2026-03-23T14:23:33Z</time></trkpt><trkpt lat="37.85115632660682" lon="13.789667428096463"><ele>695.0000000000001</ele><time>2026-03-23T14:24:01Z</time></trkpt><trkpt lat="37.85121846684061" lon="13.789626757577373"><ele>695.0</ele><time>2026-03-23T14:24:17Z</time></trkpt><trkpt lat="37.851289399883576" lon="13.789638637617507"><ele>695.0</ele><time>2026-03-23T14:24:21Z</time></trkpt><trkpt lat="37.85130121167866" lon="13.78972410756339"><ele>695.0</ele><time>2026-03-23T14:24:25Z</time></trkpt><trkpt lat="37.85135301304299" lon="13.78979190457106"><ele>695.0</ele><time>2026-03-23T14:24:32Z</time></trkpt><trkpt lat="37.85141402474244" lon="13.789829893956716"><ele>695.0000000000001</ele><time>2026-03-23T14:24:37Z</time></trkpt><trkpt lat="37.85146243308784" lon="13.78989960089974"><ele>695.0</ele><time>2026-03-23T14:24:42.999Z</time></trkpt><trkpt lat="37.851529098291174" lon="13.789952658315093"><ele>695.0000000000001</ele><time>2026-03-23T14:24:49.999Z</time></trkpt><trkpt lat="37.851565102934465" lon="13.79003253520352"><ele>695.0</ele><time>2026-03-23T14:25:57Z</time></trkpt><trkpt lat="37.851624072092044" lon="13.790069379069157"><ele>695.0</ele><time>2026-03-23T14:26:02Z</time></trkpt><trkpt lat="37.85169015039213" lon="13.790117168503226"><ele>695.0</ele><time>2026-03-23T14:26:07Z</time></trkpt><trkpt lat="37.85174691113627" lon="13.790159752833558"><ele>695.0</ele><time>2026-03-23T14:26:11Z</time></trkpt><trkpt lat="37.85180132851565" lon="13.790215444943767"><ele>695.0000000000001</ele><time>2026-03-23T14:26:16Z</time></trkpt><trkpt lat="37.85183680710833" lon="13.79029704197199"><ele>695.0</ele><time>2026-03-23T14:26:22Z</time></trkpt><trkpt lat="37.85187873666009" lon="13.790361832145104"><ele>693.7142857142858</ele><time>2026-03-23T14:26:27Z</time></trkpt><trkpt lat="37.85190518109236" lon="13.790440254999707"><ele>692.4285714285714</ele><time>2026-03-23T14:26:32Z</time></trkpt><trkpt lat="37.851955320487676" lon="13.790502977165701"><ele>691.1428571428571</ele><time>2026-03-23T14:26:37Z</time></trkpt><trkpt lat="37.85196355850229" lon="13.790584538659228"><ele>689.8571428571429</ele><time>2026-03-23T14:26:48Z</time></trkpt><trkpt lat="37.85200335455246" lon="13.790667013166466"><ele>688.5714285714286</ele><time>2026-03-23T14:26:53.999Z</time></trkpt><trkpt lat="37.852024276625805" lon="13.790745881653931"><ele>687.2857142857143</ele><time>2026-03-23T14:26:58.999Z</time></trkpt><trkpt lat="37.85205281220025" lon="13.790822661065745"><ele>686.0</ele><time>2026-03-23T14:27:03.999Z</time></trkpt><trkpt lat="37.85209314280849" lon="13.790895254384592"><ele>686.0</ele><time>2026-03-23T14:27:08.999Z</time></trkpt><trkpt lat="37.85213038324634" lon="13.7909667705524"><ele>686.0</ele><time>2026-03-23T14:27:13.999Z</time></trkpt><trkpt lat="37.852185708534115" lon="13.79102536426031"><ele>686.0</ele><time>2026-03-23T14:27:18.999Z</time></trkpt><trkpt lat="37.85220972701629" lon="13.791103493744632"><ele>686.0</ele><time>2026-03-23T14:27:23.999Z</time></trkpt><trkpt lat="37.85225779770626" lon="13.791160912512375"><ele>686.0</ele><time>2026-03-23T14:27:30.001Z</time></trkpt><trkpt lat="37.85226774236383" lon="13.791247045364631"><ele>686.0</ele><time>2026-03-23T14:28:48Z</time></trkpt><trkpt lat="37.852291932275556" lon="13.791330466922739"><ele>686.0</ele><time>2026-03-23T14:28:53.999Z</time></trkpt><trkpt lat="37.852264513840744" lon="13.791408852692355"><ele>686.4285714285714</ele><time>2026-03-23T14:29:01.999Z</time></trkpt><trkpt lat="37.852199715976845" lon="13.79145983157371"><ele>686.8571428571429</ele><time>2026-03-23T14:29:08.999Z</time></trkpt><trkpt lat="37.852191874219606" lon="13.791548015247189"><ele>687.2857142857142</ele><time>2026-03-23T14:29:18.999Z</time></trkpt><trkpt lat="37.852149862724076" lon="13.791621323835138"><ele>687.7142857142858</ele><time>2026-03-23T14:29:30.999Z</time></trkpt><trkpt lat="37.85211534449111" lon="13.791690151387542"><ele>688.1428571428571</ele><time>2026-03-23T14:29:48Z</time></trkpt><trkpt lat="37.85207628987263" lon="13.791756582101915"><ele>688.5714285714286</ele><time>2026-03-23T14:29:54Z</time></trkpt><trkpt lat="37.85204447323943" lon="13.791829448761488"><ele>689.0</ele><time>2026-03-23T14:30:00Z</time></trkpt><trkpt lat="37.852018044018365" lon="13.791912786208446"><ele>689.0</ele><time>2026-03-23T14:30:07Z</time></trkpt><trkpt lat="37.85200192563827" lon="13.791996649109878"><ele>689.0</ele><time>2026-03-23T14:30:14Z</time></trkpt><trkpt lat="37.85200567225059" lon="13.792084863950077"><ele>689.0</ele><time>2026-03-23T14:30:23Z</time></trkpt><trkpt lat="37.85206449698898" lon="13.792056324562772"><ele>689.0</ele><time>2026-03-23T14:30:48.999Z</time></trkpt><trkpt lat="37.85213163742276" lon="13.792048827003391"><ele>689.0</ele><time>2026-03-23T14:30:54.999Z</time></trkpt><trkpt lat="37.85219452002769" lon="13.792039604436248"><ele>689.0</ele><time>2026-03-23T14:31:01.999Z</time></trkpt><trkpt lat="37.85226235798122" lon="13.792064785588613"><ele>689.0</ele><time>2026-03-23T14:31:08.999Z</time></trkpt><trkpt lat="37.85232871907666" lon="13.792030017777417"><ele>689.0</ele><time>2026-03-23T14:31:15.999Z</time></trkpt><trkpt lat="37.852386544992925" lon="13.79198037604407"><ele>689.0</ele><time>2026-03-23T14:31:30.999Z</time></trkpt><trkpt lat="37.85244859230822" lon="13.791957208183913"><ele>689.0</ele><time>2026-03-23T14:31:41Z</time></trkpt><trkpt lat="37.85251685839035" lon="13.791959664923713"><ele>689.0</ele><time>2026-03-23T14:31:50Z</time></trkpt><trkpt lat="37.85258261783944" lon="13.791952019294165"><ele>689.0</ele><time>2026-03-23T14:31:56Z</time></trkpt><trkpt lat="37.85264753950939" lon="13.791928365758851"><ele>689.0</ele><time>2026-03-23T14:32:02Z</time></trkpt><trkpt lat="37.85277658038793" lon="13.791919374728495"><ele>688.1428571428571</ele><time>2026-03-23T14:32:18Z</time></trkpt><trkpt lat="37.85283749431044" lon="13.791976909720937"><ele>687.2857142857143</ele><time>2026-03-23T14:32:23Z</time></trkpt><trkpt lat="37.85290770391864" lon="13.79194956545807"><ele>686.4285714285714</ele><time>2026-03-23T14:32:28.999Z</time></trkpt><trkpt lat="37.852977616257135" lon="13.79191979561943"><ele>685.5714285714286</ele><time>2026-03-23T14:32:34.999Z</time></trkpt><trkpt lat="37.85299935647705" lon="13.79183497137066"><ele>684.7142857142857</ele><time>2026-03-23T14:33:37.999Z</time></trkpt><trkpt lat="37.853002825204726" lon="13.791751534894296"><ele>683.8571428571429</ele><time>2026-03-23T14:33:42.999Z</time></trkpt><trkpt lat="37.85298917509123" lon="13.791661085532093"><ele>683.0</ele><time>2026-03-23T14:33:47.999Z</time></trkpt><trkpt lat="37.85300328574587" lon="13.791581829467944"><ele>683.0</ele><time>2026-03-23T14:33:51.999Z</time></trkpt><trkpt lat="37.85303017116758" lon="13.791496990511565"><ele>683.0</ele><time>2026-03-23T14:33:58.999Z</time></trkpt><trkpt lat="37.8530721393172" lon="13.791431671990107"><ele>683.0</ele><time>2026-03-23T14:34:04.999Z</time></trkpt><trkpt lat="37.85313841921117" lon="13.791395052390007"><ele>683.0</ele><time>2026-03-23T14:34:11.999Z</time></trkpt><trkpt lat="37.85318703690623" lon="13.791336549148548"><ele>683.0</ele><time>2026-03-23T14:34:17.999Z</time></trkpt><trkpt lat="37.853249518023645" lon="13.7913525850273"><ele>683.0</ele><time>2026-03-23T14:34:23.999Z</time></trkpt><trkpt lat="37.85319573056463" lon="13.791298394351314"><ele>683.0</ele><time>2026-03-23T14:35:14.999Z</time></trkpt><trkpt lat="37.85315308686727" lon="13.791224717226653"><ele>683.0</ele><time>2026-03-23T14:35:21.999Z</time></trkpt><trkpt lat="37.853093003637454" lon="13.79116678326526"><ele>683.0</ele><time>2026-03-23T14:35:27.999Z</time></trkpt><trkpt lat="37.853048310194616" lon="13.79110534966249"><ele>683.0</ele><time>2026-03-23T14:35:32.999Z</time></trkpt><trkpt lat="37.85300348116414" lon="13.791047922999217"><ele>683.0</ele><time>2026-03-23T14:35:36.999Z</time></trkpt><trkpt lat="37.85297204947424" lon="13.79097297602423"><ele>683.0</ele><time>2026-03-23T14:35:46.998Z</time></trkpt><trkpt lat="37.85291418906728" lon="13.790919344570362"><ele>683.0</ele><time>2026-03-23T14:36:00.999Z</time></trkpt><trkpt lat="37.85286922777768" lon="13.790849639228485"><ele>683.0</ele><time>2026-03-23T14:36:08.999Z</time></trkpt><trkpt lat="37.85281512427588" lon="13.790794849158557"><ele>681.7142857142858</ele><time>2026-03-23T14:36:17.999Z</time></trkpt><trkpt lat="37.852798416235906" lon="13.7906833688162"><ele>680.4285714285714</ele><time>2026-03-23T14:36:25.999Z</time></trkpt><trkpt lat="37.852835251794595" lon="13.790608874740013"><ele>679.1428571428571</ele><time>2026-03-23T14:36:32.999Z</time></trkpt><trkpt lat="37.85285573210708" lon="13.790526250122227"><ele>677.8571428571429</ele><time>2026-03-23T14:36:39.999Z</time></trkpt><trkpt lat="37.852902829519294" lon="13.790471012287453"><ele>676.5714285714286</ele><time>2026-03-23T14:36:47.999Z</time></trkpt><trkpt lat="37.852948247498524" lon="13.790398459664544"><ele>675.2857142857143</ele><time>2026-03-23T14:37:28.999Z</time></trkpt><trkpt lat="37.85297938739738" lon="13.79031441385005"><ele>674.0</ele><time>2026-03-23T14:37:36.999Z</time></trkpt><trkpt lat="37.85299059568461" lon="13.790232898332599"><ele>672.7142857142858</ele><time>2026-03-23T14:37:45.999Z</time></trkpt><trkpt lat="37.8530237183993" lon="13.79016018014457"><ele>671.4285714285714</ele><time>2026-03-23T14:37:55.999Z</time></trkpt><trkpt lat="37.85306638787878" lon="13.790100921868834"><ele>670.1428571428571</ele><time>2026-03-23T14:38:03Z</time></trkpt><trkpt lat="37.85311898326817" lon="13.790054461184916"><ele>668.8571428571429</ele><time>2026-03-23T14:38:11Z</time></trkpt><trkpt lat="37.85317310536013" lon="13.789990724941847"><ele>667.5714285714286</ele><time>2026-03-23T14:38:16Z</time></trkpt><trkpt lat="37.85321956131597" lon="13.789919565592434"><ele>666.2857142857143</ele><time>2026-03-23T14:38:35Z</time></trkpt><trkpt lat="37.85325884007557" lon="13.789846990008867"><ele>665.0</ele><time>2026-03-23T14:38:40Z</time></trkpt><trkpt lat="37.85329376700082" lon="13.789769625721025"><ele>665.0</ele><time>2026-03-23T14:38:46Z</time></trkpt><trkpt lat="37.85333011456102" lon="13.789695869296171"><ele>665.0</ele><time>2026-03-23T14:38:52Z</time></trkpt><trkpt lat="37.85337358384314" lon="13.789630669083428"><ele>665.0</ele><time>2026-03-23T14:38:58Z</time></trkpt><trkpt lat="37.85342641983783" lon="13.789566755716878"><ele>665.0</ele><time>2026-03-23T14:39:03Z</time></trkpt><trkpt lat="37.85345434654777" lon="13.789480262294354"><ele>665.0</ele><time>2026-03-23T14:39:09Z</time></trkpt><trkpt lat="37.85349325642037" lon="13.78941478104026"><ele>665.0</ele><time>2026-03-23T14:39:15Z</time></trkpt><trkpt lat="37.85354039396894" lon="13.78936029703377"><ele>665.0</ele><time>2026-03-23T14:39:45.999Z</time></trkpt><trkpt lat="37.853593869496905" lon="13.789307045629172"><ele>662.2857142857143</ele><time>2026-03-23T14:39:50.999Z</time></trkpt><trkpt lat="37.8536476648718" lon="13.78924563104916"><ele>659.5714285714286</ele><time>2026-03-23T14:39:55.999Z</time></trkpt><trkpt lat="37.853695529354" lon="13.789177553744585"><ele>656.8571428571429</ele><time>2026-03-23T14:40:00.999Z</time></trkpt><trkpt lat="37.8537514577397" lon="13.789124376071863"><ele>654.1428571428571</ele><time>2026-03-23T14:40:07.001Z</time></trkpt><trkpt lat="37.853774613687406" lon="13.789049061822041"><ele>651.4285714285714</ele><time>2026-03-23T14:40:15.001Z</time></trkpt><trkpt lat="37.85382086360208" lon="13.788990181577862"><ele>648.7142857142858</ele><time>2026-03-23T14:40:20Z</time></trkpt><trkpt lat="37.85387894051795" lon="13.788928757702706"><ele>646.0</ele><time>2026-03-23T14:40:25Z</time></trkpt><trkpt lat="37.85393922126599" lon="13.78887248614007"><ele>646.0000000000001</ele><time>2026-03-23T14:40:30Z</time></trkpt><trkpt lat="37.85399701002016" lon="13.788807361154374"><ele>646.0</ele><time>2026-03-23T14:40:35Z</time></trkpt><trkpt lat="37.854055580537604" lon="13.788774268516988"><ele>646.0</ele><time>2026-03-23T14:40:40Z</time></trkpt><trkpt lat="37.85411252732454" lon="13.788724945723066"><ele>646.0</ele><time>2026-03-23T14:40:46Z</time></trkpt><trkpt lat="37.85416208490966" lon="13.788666635106715"><ele>646.0</ele><time>2026-03-23T14:40:55Z</time></trkpt><trkpt lat="37.85421012800175" lon="13.788610886378699"><ele>646.0000000000001</ele><time>2026-03-23T14:41:02Z</time></trkpt><trkpt lat="37.85427262272907" lon="13.788565073774311"><ele>646.0</ele><time>2026-03-23T14:41:13Z</time></trkpt><trkpt lat="37.85432527683671" lon="13.788515497450135"><ele>643.0000000000001</ele><time>2026-03-23T14:41:17Z</time></trkpt><trkpt lat="37.854413148847044" lon="13.788479145145125"><ele>640.0</ele><time>2026-03-23T14:41:43Z</time></trkpt><trkpt lat="37.85445290261586" lon="13.78840536835185"><ele>637.0</ele><time>2026-03-23T14:41:52Z</time></trkpt><trkpt lat="37.85449568578459" lon="13.788345373953288"><ele>634.0</ele><time>2026-03-23T14:41:59Z</time></trkpt><trkpt lat="37.85455298679945" lon="13.788302840879613"><ele>631.0</ele><time>2026-03-23T14:42:06.999Z</time></trkpt><trkpt lat="37.854603411468645" lon="13.788227559595422"><ele>628.0000000000001</ele><time>2026-03-23T14:42:53Z</time></trkpt><trkpt lat="37.85465853912936" lon="13.788174494563963"><ele>625.0</ele><time>2026-03-23T14:42:59Z</time></trkpt><trkpt lat="37.85471999947786" lon="13.788122838165242"><ele>625.0000000000001</ele><time>2026-03-23T14:43:09Z</time></trkpt><trkpt lat="37.85476440145086" lon="13.78806035332703"><ele>625.0</ele><time>2026-03-23T14:43:16Z</time></trkpt><trkpt lat="37.854802261693116" lon="13.787993706952665"><ele>625.0</ele><time>2026-03-23T14:43:24Z</time></trkpt><trkpt lat="37.85484066138191" lon="13.787926228604151"><ele>625.0</ele><time>2026-03-23T14:43:30Z</time></trkpt><trkpt lat="37.85488735230818" lon="13.78783547068183"><ele>625.0</ele><time>2026-03-23T14:43:37Z</time></trkpt><trkpt lat="37.85492411558604" lon="13.787770501402154"><ele>625.0000000000001</ele><time>2026-03-23T14:43:46Z</time></trkpt><trkpt lat="37.854977301956225" lon="13.78771336487686"><ele>625.0</ele><time>2026-03-23T14:43:51.999Z</time></trkpt><trkpt lat="37.85500820059433" lon="13.78763837726814"><ele>623.8571428571429</ele><time>2026-03-23T14:43:56.999Z</time></trkpt><trkpt lat="37.85503296077007" lon="13.787558496432837"><ele>622.7142857142858</ele><time>2026-03-23T14:44:05.999Z</time></trkpt><trkpt lat="37.85506809357119" lon="13.787488752500671"><ele>621.5714285714287</ele><time>2026-03-23T14:44:10.999Z</time></trkpt><trkpt lat="37.85507391209346" lon="13.787395934867462"><ele>620.4285714285714</ele><time>2026-03-23T14:44:17.001Z</time></trkpt><trkpt lat="37.85510747580592" lon="13.787327551975086"><ele>619.2857142857142</ele><time>2026-03-23T14:44:24.001Z</time></trkpt><trkpt lat="37.85513162277763" lon="13.787252765358518"><ele>618.1428571428572</ele><time>2026-03-23T14:44:29Z</time></trkpt><trkpt lat="37.85515977106048" lon="13.787164670375654"><ele>617.0</ele><time>2026-03-23T14:44:35Z</time></trkpt><trkpt lat="37.85519794094879" lon="13.787090873978709"><ele>614.0</ele><time>2026-03-23T14:44:56Z</time></trkpt><trkpt lat="37.85521121866698" lon="13.787006483510359"><ele>611.0</ele><time>2026-03-23T14:45:03Z</time></trkpt><trkpt lat="37.855229634566925" lon="13.786920424797252"><ele>608.0</ele><time>2026-03-23T14:45:09Z</time></trkpt><trkpt lat="37.855280176181154" lon="13.78685805388519"><ele>605.0</ele><time>2026-03-23T14:45:15Z</time></trkpt><trkpt lat="37.85527771070171" lon="13.786745829593093"><ele>602.0</ele><time>2026-03-23T14:45:37Z</time></trkpt><trkpt lat="37.85529142424494" lon="13.786652456552087"><ele>599.0</ele><time>2026-03-23T14:45:42.999Z</time></trkpt><trkpt lat="37.85529678494337" lon="13.786568806112296"><ele>596.0</ele><time>2026-03-23T14:46:00.999Z</time></trkpt><trkpt lat="37.85531584612006" lon="13.78649124458314"><ele>595.7142857142857</ele><time>2026-03-23T14:46:14.999Z</time></trkpt><trkpt lat="37.855352551201086" lon="13.786419928170258"><ele>595.4285714285713</ele><time>2026-03-23T14:46:23.001Z</time></trkpt><trkpt lat="37.855389198762296" lon="13.786349808113066"><ele>595.1428571428571</ele><time>2026-03-23T14:46:39Z</time></trkpt><trkpt lat="37.855444904409396" lon="13.786288067128785"><ele>594.8571428571429</ele><time>2026-03-23T14:46:44Z</time></trkpt><trkpt lat="37.85548613547967" lon="13.786212893025247"><ele>594.5714285714287</ele><time>2026-03-23T14:47:01Z</time></trkpt><trkpt lat="37.855535965691466" lon="13.786156376464993"><ele>594.2857142857143</ele><time>2026-03-23T14:47:06Z</time></trkpt><trkpt lat="37.855587536085565" lon="13.786108384368797"><ele>594.0</ele><time>2026-03-23T14:47:11Z</time></trkpt><trkpt lat="37.85564351880511" lon="13.78606069930699"><ele>593.7142857142858</ele><time>2026-03-23T14:47:18Z</time></trkpt><trkpt lat="37.855689354038475" lon="13.78599910358544"><ele>593.4285714285714</ele><time>2026-03-23T14:47:24Z</time></trkpt><trkpt lat="37.85571211694287" lon="13.785912052787378"><ele>593.1428571428571</ele><time>2026-03-23T14:47:30Z</time></trkpt><trkpt lat="37.855679943557924" lon="13.785839673781181"><ele>592.8571428571429</ele><time>2026-03-23T14:47:35Z</time></trkpt><trkpt lat="37.855664468716476" lon="13.785919190425087"><ele>592.5714285714286</ele><time>2026-03-23T14:47:47.999Z</time></trkpt><trkpt lat="37.85573339745305" lon="13.785947168826274"><ele>592.2857142857143</ele><time>2026-03-23T14:47:55.999Z</time></trkpt><trkpt lat="37.855791177573046" lon="13.785902431326198"><ele>592.0</ele><time>2026-03-23T14:48:00.999Z</time></trkpt><trkpt lat="37.85585350169878" lon="13.78586288110091"><ele>592.0</ele><time>2026-03-23T14:48:07.999Z</time></trkpt><trkpt lat="37.85590852146606" lon="13.785823364258322"><ele>592.0</ele><time>2026-03-23T14:48:14.999Z</time></trkpt><trkpt lat="37.85595846128372" lon="13.785761892392589"><ele>582.0</ele><time>2026-03-23T14:48:23.999Z</time></trkpt><trkpt lat="37.85601435085094" lon="13.785698364146148"><ele>582.0</ele><time>2026-03-23T14:48:50Z</time></trkpt><trkpt lat="37.85606565102858" lon="13.785651697784642"><ele>582.0</ele><time>2026-03-23T14:48:57Z</time></trkpt></trkseg></trk></gpx>